createdAt,value
2023-05-13T00:00:27.127Z,1019.75
2023-05-13T00:01:28.952Z,1019.74
2023-05-13T00:01:59.907Z,1019.75
2023-05-13T00:02:30.911Z,1019.74
2023-05-13T00:03:00.617Z,1019.75
2023-05-13T00:03:32.409Z,1019.76
2023-05-13T00:04:02.993Z,1019.76
2023-05-13T00:04:33.890Z,1019.75
2023-05-13T00:05:04.830Z,1019.75
2023-05-13T00:05:35.645Z,1019.75
2023-05-13T00:06:06.517Z,1019.75
2023-05-13T00:06:37.178Z,1019.75
2023-05-13T00:07:07.665Z,1019.75
2023-05-13T00:07:38.588Z,1019.75
2023-05-13T00:08:09.375Z,1019.75
2023-05-13T00:08:40.288Z,1019.74
2023-05-13T00:09:11.202Z,1019.73
2023-05-13T00:09:42.106Z,1019.73
2023-05-13T00:10:12.977Z,1019.72
2023-05-13T00:10:45.809Z,1019.73
2023-05-13T00:11:13.670Z,1019.71
2023-05-13T00:11:45.619Z,1019.71
2023-05-13T00:12:16.521Z,1019.71
2023-05-13T00:12:47.325Z,1019.71
2023-05-13T00:13:18.236Z,1019.70
2023-05-13T00:13:51.336Z,1019.71
2023-05-13T00:14:18.708Z,1019.70
2023-05-13T00:14:50.640Z,1019.70
2023-05-13T00:15:21.541Z,1019.70
2023-05-13T00:15:52.490Z,1019.70
2023-05-13T00:16:22.165Z,1019.70
2023-05-13T00:16:54.089Z,1019.71
2023-05-13T00:17:25.041Z,1019.71
2023-05-13T00:17:55.998Z,1019.71
2023-05-13T00:18:26.818Z,1019.72
2023-05-13T00:18:57.805Z,1019.72
2023-05-13T00:19:28.688Z,1019.72
2023-05-13T00:19:59.605Z,1019.71
2023-05-13T00:20:30.536Z,1019.70
2023-05-13T00:21:00.059Z,1019.71
2023-05-13T00:21:31.970Z,1019.71
2023-05-13T00:22:02.766Z,1019.70
2023-05-13T00:22:33.677Z,1019.70
2023-05-13T00:23:04.617Z,1019.70
2023-05-13T00:23:34.107Z,1019.69
2023-05-13T00:24:06.029Z,1019.69
2023-05-13T00:24:36.051Z,1019.69
2023-05-13T00:25:07.950Z,1019.69
2023-05-13T00:25:38.835Z,1019.68
2023-05-13T00:26:09.771Z,1019.69
2023-05-13T00:26:40.560Z,1019.69
2023-05-13T00:27:10.151Z,1019.68
2023-05-13T00:27:42.151Z,1019.69
2023-05-13T00:28:11.750Z,1019.68
2023-05-13T00:28:42.291Z,1019.69
2023-05-13T00:29:14.209Z,1019.68
2023-05-13T00:29:45.115Z,1019.70
2023-05-13T00:30:16.022Z,1019.69
2023-05-13T00:30:46.934Z,1019.71
2023-05-13T00:31:17.865Z,1019.69
2023-05-13T00:31:48.797Z,1019.70
2023-05-13T00:32:19.777Z,1019.70
2023-05-13T00:32:49.342Z,1019.70
2023-05-13T00:33:21.257Z,1019.70
2023-05-13T00:33:52.189Z,1019.69
2023-05-13T00:34:23.004Z,1019.68
2023-05-13T00:34:53.937Z,1019.67
2023-05-13T00:35:23.453Z,1019.67
2023-05-13T00:35:55.353Z,1019.65
2023-05-13T00:36:26.161Z,1019.65
2023-05-13T00:36:57.077Z,1019.64
2023-05-13T00:37:26.670Z,1019.63
2023-05-13T00:37:58.477Z,1019.62
2023-05-13T00:38:29.389Z,1019.62
2023-05-13T00:39:00.318Z,1019.62
2023-05-13T00:39:31.222Z,1019.62
2023-05-13T00:40:00.858Z,1019.59
2023-05-13T00:40:32.751Z,1019.61
2023-05-13T00:41:03.673Z,1019.61
2023-05-13T00:41:34.598Z,1019.60
2023-05-13T00:42:05.516Z,1019.60
2023-05-13T00:42:36.418Z,1019.60
2023-05-13T00:43:05.936Z,1019.60
2023-05-13T00:43:37.837Z,1019.60
2023-05-13T00:44:38.218Z,1019.59
2023-05-13T00:45:10.107Z,1019.60
2023-05-13T00:45:40.931Z,1019.61
2023-05-13T00:46:10.567Z,1019.60
2023-05-13T00:46:42.361Z,1019.60
2023-05-13T00:47:13.284Z,1019.61
2023-05-13T00:47:44.341Z,1019.62
2023-05-13T00:48:13.899Z,1019.62
2023-05-13T00:48:45.834Z,1019.65
2023-05-13T00:49:16.743Z,1019.63
2023-05-13T00:49:47.560Z,1019.65
2023-05-13T00:50:18.537Z,1019.66
2023-05-13T00:50:48.121Z,1019.66
2023-05-13T00:51:20.021Z,1019.67
2023-05-13T00:51:49.646Z,1019.67
2023-05-13T00:52:21.553Z,1019.68
2023-05-13T00:52:52.456Z,1019.67
2023-05-13T00:53:23.375Z,1019.68
2023-05-13T00:53:53.095Z,1019.67
2023-05-13T00:54:25.038Z,1019.68
2023-05-13T00:54:55.957Z,1019.67
2023-05-13T00:55:26.918Z,1019.66
2023-05-13T00:55:57.806Z,1019.64
2023-05-13T00:56:28.722Z,1019.64
2023-05-13T00:57:30.456Z,1019.63
2023-05-13T00:58:01.341Z,1019.62
2023-05-13T00:58:32.247Z,1019.63
2023-05-13T00:59:04.550Z,1019.62
2023-05-13T00:59:33.944Z,1019.64
2023-05-13T01:00:04.834Z,1019.64
2023-05-13T01:00:35.755Z,1019.63
2023-05-13T01:01:05.419Z,1019.63
2023-05-13T01:01:37.417Z,1019.63
2023-05-13T01:02:07.131Z,1019.64
2023-05-13T01:02:39.132Z,1019.64
2023-05-13T01:03:09.731Z,1019.64
2023-05-13T01:03:39.461Z,1019.67
2023-05-13T01:04:11.371Z,1019.66
2023-05-13T01:04:40.873Z,1019.68
2023-05-13T01:05:12.811Z,1019.69
2023-05-13T01:05:42.453Z,1019.69
2023-05-13T01:06:14.352Z,1019.70
2023-05-13T01:06:43.948Z,1019.70
2023-05-13T01:07:15.859Z,1019.71
2023-05-13T01:07:46.770Z,1019.72
2023-05-13T01:08:17.718Z,1019.70
2023-05-13T01:08:48.494Z,1019.70
2023-05-13T01:09:19.401Z,1019.70
2023-05-13T01:10:20.413Z,1019.68
2023-05-13T01:10:51.129Z,1019.68
2023-05-13T01:11:22.925Z,1019.68
2023-05-13T01:11:53.846Z,1019.69
2023-05-13T01:12:24.767Z,1019.69
2023-05-13T01:12:54.369Z,1019.69
2023-05-13T01:13:24.966Z,1019.71
2023-05-13T01:13:56.870Z,1019.72
2023-05-13T01:14:27.800Z,1019.73
2023-05-13T01:14:58.726Z,1019.74
2023-05-13T01:15:28.332Z,1019.75
2023-05-13T01:16:00.138Z,1019.75
2023-05-13T01:16:31.116Z,1019.76
2023-05-13T01:17:00.916Z,1019.76
2023-05-13T01:17:31.520Z,1019.76
2023-05-13T01:18:03.522Z,1019.76
2023-05-13T01:18:34.003Z,1019.76
2023-05-13T01:19:05.014Z,1019.75
2023-05-13T01:19:35.501Z,1019.74
2023-05-13T01:20:05.115Z,1019.75
2023-05-13T01:20:36.926Z,1019.74
2023-05-13T01:21:07.727Z,1019.73
2023-05-13T01:21:37.377Z,1019.72
2023-05-13T01:22:09.323Z,1019.71
2023-05-13T01:22:40.227Z,1019.70
2023-05-13T01:23:11.140Z,1019.71
2023-05-13T01:23:41.968Z,1019.71
2023-05-13T01:24:11.613Z,1019.71
2023-05-13T01:24:43.185Z,1019.70
2023-05-13T01:25:13.640Z,1019.71
2023-05-13T01:25:44.530Z,1019.71
2023-05-13T01:26:15.487Z,1019.71
2023-05-13T01:26:46.384Z,1019.72
2023-05-13T01:27:15.988Z,1019.73
2023-05-13T01:27:46.583Z,1019.72
2023-05-13T01:28:18.504Z,1019.73
2023-05-13T01:28:49.418Z,1019.73
2023-05-13T01:29:20.363Z,1019.74
2023-05-13T01:29:51.160Z,1019.75
2023-05-13T01:30:20.920Z,1019.75
2023-05-13T01:31:23.429Z,1019.75
2023-05-13T01:31:53.882Z,1019.76
2023-05-13T01:32:24.854Z,1019.77
2023-05-13T01:32:55.820Z,1019.76
2023-05-13T01:33:26.772Z,1019.78
2023-05-13T01:33:57.565Z,1019.78
2023-05-13T01:34:28.513Z,1019.76
2023-05-13T01:34:58.129Z,1019.76
2023-05-13T01:35:30.046Z,1019.76
2023-05-13T01:36:00.956Z,1019.77
2023-05-13T01:36:31.878Z,1019.77
2023-05-13T01:37:02.807Z,1019.76
2023-05-13T01:37:32.380Z,1019.76
2023-05-13T01:38:04.287Z,1019.76
2023-05-13T01:38:33.903Z,1019.75
2023-05-13T01:39:05.803Z,1019.76
2023-05-13T01:39:36.728Z,1019.75
2023-05-13T01:40:20.457Z,1019.75
2023-05-13T01:40:38.888Z,1019.74
2023-05-13T01:41:08.168Z,1019.74
2023-05-13T01:41:38.813Z,1019.74
2023-05-13T01:42:10.586Z,1019.74
2023-05-13T01:42:41.508Z,1019.74
2023-05-13T01:43:12.415Z,1019.73
2023-05-13T01:44:12.627Z,1019.75
2023-05-13T01:44:44.431Z,1019.75
2023-05-13T01:45:15.330Z,1019.74
2023-05-13T01:45:46.267Z,1019.75
2023-05-13T01:46:17.236Z,1019.74
2023-05-13T01:46:48.197Z,1019.76
2023-05-13T01:47:17.861Z,1019.74
2023-05-13T01:47:49.840Z,1019.74
2023-05-13T01:48:20.611Z,1019.76
2023-05-13T01:48:50.222Z,1019.77
2023-05-13T01:49:22.134Z,1019.76
2023-05-13T01:49:51.760Z,1019.76
2023-05-13T01:50:23.925Z,1019.77
2023-05-13T01:50:54.583Z,1019.78
2023-05-13T01:51:24.219Z,1019.78
2023-05-13T01:51:56.022Z,1019.79
2023-05-13T01:52:26.941Z,1019.80
2023-05-13T01:52:57.872Z,1019.78
2023-05-13T01:53:28.782Z,1019.79
2023-05-13T01:53:59.676Z,1019.79
2023-05-13T01:54:30.582Z,1019.81
2023-05-13T01:55:00.207Z,1019.80
2023-05-13T01:55:30.803Z,1019.81
2023-05-13T01:56:01.395Z,1019.81
2023-05-13T01:57:02.918Z,1019.81
2023-05-13T01:57:34.722Z,1019.80
2023-05-13T01:58:05.629Z,1019.80
2023-05-13T01:58:36.530Z,1019.80
2023-05-13T01:59:07.417Z,1019.80
2023-05-13T01:59:38.344Z,1019.80
2023-05-13T02:00:07.940Z,1019.81
2023-05-13T02:00:39.888Z,1019.81
2023-05-13T02:01:10.809Z,1019.81
2023-05-13T02:01:41.760Z,1019.81
2023-05-13T02:02:12.739Z,1019.80
2023-05-13T02:02:42.416Z,1019.81
2023-05-13T02:03:13.128Z,1019.80
2023-05-13T02:03:43.872Z,1019.80
2023-05-13T02:04:15.348Z,1019.80
2023-05-13T02:04:44.949Z,1019.79
2023-05-13T02:05:16.866Z,1019.80
2023-05-13T02:05:47.803Z,1019.79
2023-05-13T02:06:18.743Z,1019.79
2023-05-13T02:06:49.655Z,1019.80
2023-05-13T02:07:20.582Z,1019.81
2023-05-13T02:07:50.185Z,1019.81
2023-05-13T02:08:20.801Z,1019.82
2023-05-13T02:08:51.307Z,1019.82
2023-05-13T02:09:23.245Z,1019.82
2023-05-13T02:09:54.155Z,1019.81
2023-05-13T02:10:25.078Z,1019.81
2023-05-13T02:10:56.081Z,1019.83
2023-05-13T02:11:27.012Z,1019.82
2023-05-13T02:11:57.906Z,1019.81
2023-05-13T02:12:28.869Z,1019.84
2023-05-13T02:12:59.780Z,1019.84
2023-05-13T02:13:30.712Z,1019.84
2023-05-13T02:14:00.332Z,1019.85
2023-05-13T02:14:32.247Z,1019.86
2023-05-13T02:15:01.833Z,1019.86
2023-05-13T02:15:33.768Z,1019.86
2023-05-13T02:16:04.728Z,1019.86
2023-05-13T02:16:34.438Z,1019.87
2023-05-13T02:17:06.329Z,1019.87
2023-05-13T02:17:37.274Z,1019.87
2023-05-13T02:18:06.937Z,1019.86
2023-05-13T02:18:37.514Z,1019.85
2023-05-13T02:19:09.473Z,1019.84
2023-05-13T02:19:40.411Z,1019.85
2023-05-13T02:20:11.334Z,1019.84
2023-05-13T02:20:43.310Z,1019.84
2023-05-13T02:21:12.735Z,1019.84
2023-05-13T02:21:43.635Z,1019.82
2023-05-13T02:22:13.173Z,1019.83
2023-05-13T02:22:45.093Z,1019.82
2023-05-13T02:23:16.035Z,1019.81
2023-05-13T02:23:46.973Z,1019.80
2023-05-13T02:24:16.583Z,1019.81
2023-05-13T02:24:47.120Z,1019.80
2023-05-13T02:25:19.062Z,1019.79
2023-05-13T02:25:50.933Z,1019.79
2023-05-13T02:26:19.782Z,1019.79
2023-05-13T02:26:50.279Z,1019.79
2023-05-13T02:27:20.900Z,1019.78
2023-05-13T02:27:52.859Z,1019.77
2023-05-13T02:28:22.383Z,1019.76
2023-05-13T02:28:54.306Z,1019.75
2023-05-13T02:29:23.808Z,1019.75
2023-05-13T02:29:55.745Z,1019.75
2023-05-13T02:30:57.464Z,1019.74
2023-05-13T02:31:27.085Z,1019.73
2023-05-13T02:31:59.072Z,1019.74
2023-05-13T02:32:29.881Z,1019.73
2023-05-13T02:33:00.837Z,1019.74
2023-05-13T02:33:30.485Z,1019.74
2023-05-13T02:34:02.401Z,1019.74
2023-05-13T02:34:33.327Z,1019.74
2023-05-13T02:35:04.237Z,1019.75
2023-05-13T02:35:35.058Z,1019.74
2023-05-13T02:36:05.995Z,1019.75
2023-05-13T02:36:36.900Z,1019.75
2023-05-13T02:37:07.809Z,1019.75
2023-05-13T02:37:38.735Z,1019.76
2023-05-13T02:38:09.634Z,1019.76
2023-05-13T02:38:39.152Z,1019.76
2023-05-13T02:39:12.146Z,1019.76
2023-05-13T02:39:40.836Z,1019.76
2023-05-13T02:40:11.442Z,1019.76
2023-05-13T02:40:43.247Z,1019.76
2023-05-13T02:41:14.176Z,1019.77
2023-05-13T02:41:45.096Z,1019.77
2023-05-13T02:42:15.113Z,1019.77
2023-05-13T02:42:47.044Z,1019.78
2023-05-13T02:43:17.871Z,1019.77
2023-05-13T02:43:47.493Z,1019.77
2023-05-13T02:44:18.087Z,1019.77
2023-05-13T02:44:48.780Z,1019.77
2023-05-13T02:45:20.204Z,1019.76
2023-05-13T02:45:51.160Z,1019.77
2023-05-13T02:46:21.952Z,1019.77
2023-05-13T02:46:51.593Z,1019.77
2023-05-13T02:47:23.500Z,1019.76
2023-05-13T02:47:53.158Z,1019.76
2023-05-13T02:48:25.105Z,1019.76
2023-05-13T02:48:55.912Z,1019.77
2023-05-13T02:49:26.854Z,1019.76
2023-05-13T02:49:56.479Z,1019.77
2023-05-13T02:50:27.066Z,1019.76
2023-05-13T02:50:58.968Z,1019.77
2023-05-13T02:51:29.872Z,1019.76
2023-05-13T02:52:00.796Z,1019.76
2023-05-13T02:52:30.396Z,1019.75
2023-05-13T02:53:02.299Z,1019.76
2023-05-13T02:53:33.224Z,1019.75
2023-05-13T02:54:04.141Z,1019.75
2023-05-13T02:54:35.046Z,1019.76
2023-05-13T02:55:06.035Z,1019.76
2023-05-13T02:55:36.459Z,1019.76
2023-05-13T02:56:36.816Z,1019.76
2023-05-13T02:57:08.750Z,1019.77
2023-05-13T02:57:38.337Z,1019.78
2023-05-13T02:58:10.243Z,1019.77
2023-05-13T02:58:41.081Z,1019.78
2023-05-13T02:59:11.975Z,1019.78
2023-05-13T02:59:42.888Z,1019.78
2023-05-13T03:00:13.825Z,1019.78
2023-05-13T03:00:44.739Z,1019.78
2023-05-13T03:01:15.661Z,1019.78
2023-05-13T03:01:46.629Z,1019.78
2023-05-13T03:02:16.278Z,1019.78
2023-05-13T03:02:48.123Z,1019.78
2023-05-13T03:03:19.271Z,1019.78
2023-05-13T03:03:49.783Z,1019.78
2023-05-13T03:04:19.350Z,1019.78
2023-05-13T03:04:49.881Z,1019.79
2023-05-13T03:05:21.804Z,1019.78
2023-05-13T03:05:52.618Z,1019.78
2023-05-13T03:06:23.432Z,1019.78
2023-05-13T03:06:54.369Z,1019.77
2023-05-13T03:07:25.322Z,1019.77
2023-05-13T03:07:56.239Z,1019.77
2023-05-13T03:08:27.136Z,1019.78
2023-05-13T03:08:56.742Z,1019.78
2023-05-13T03:09:28.666Z,1019.79
2023-05-13T03:09:59.591Z,1019.79
2023-05-13T03:10:30.493Z,1019.79
2023-05-13T03:11:01.410Z,1019.78
2023-05-13T03:11:32.334Z,1019.79
2023-05-13T03:12:03.244Z,1019.79
2023-05-13T03:12:34.173Z,1019.77
2023-05-13T03:13:03.781Z,1019.77
2023-05-13T03:13:34.783Z,1019.77
2023-05-13T03:14:06.742Z,1019.77
2023-05-13T03:14:37.511Z,1019.78
2023-05-13T03:15:07.113Z,1019.79
2023-05-13T03:15:38.966Z,1019.79
2023-05-13T03:16:09.959Z,1019.79
2023-05-13T03:16:39.614Z,1019.79
2023-05-13T03:17:11.072Z,1019.79
2023-05-13T03:17:40.727Z,1019.79
2023-05-13T03:18:12.682Z,1019.80
2023-05-13T03:18:42.450Z,1019.79
2023-05-13T03:19:14.318Z,1019.79
2023-05-13T03:19:44.818Z,1019.80
2023-05-13T03:20:15.740Z,1019.80
2023-05-13T03:20:46.631Z,1019.80
2023-05-13T03:21:16.253Z,1019.81
2023-05-13T03:22:19.024Z,1019.83
2023-05-13T03:22:49.942Z,1019.83
2023-05-13T03:23:19.562Z,1019.84
2023-05-13T03:23:51.380Z,1019.84
2023-05-13T03:24:22.290Z,1019.85
2023-05-13T03:24:53.191Z,1019.85
2023-05-13T03:25:24.130Z,1019.85
2023-05-13T03:25:54.945Z,1019.87
2023-05-13T03:26:24.537Z,1019.87
2023-05-13T03:26:56.384Z,1019.88
2023-05-13T03:27:25.933Z,1019.89
2023-05-13T03:27:57.696Z,1019.90
2023-05-13T03:28:28.565Z,1019.89
2023-05-13T03:28:59.416Z,1019.91
2023-05-13T03:29:30.368Z,1019.91
2023-05-13T03:30:01.260Z,1019.91
2023-05-13T03:30:31.198Z,1019.92
2023-05-13T03:31:03.120Z,1019.91
2023-05-13T03:31:33.937Z,1019.91
2023-05-13T03:32:04.897Z,1019.92
2023-05-13T03:32:35.846Z,1019.93
2023-05-13T03:33:06.782Z,1019.93
2023-05-13T03:33:36.374Z,1019.93
2023-05-13T03:34:08.094Z,1019.93
2023-05-13T03:35:08.872Z,1019.94
2023-05-13T03:35:40.719Z,1019.94
2023-05-13T03:36:11.529Z,1019.96
2023-05-13T03:36:42.404Z,1019.96
2023-05-13T03:37:13.275Z,1019.96
2023-05-13T03:37:42.826Z,1019.95
2023-05-13T03:38:14.701Z,1019.97
2023-05-13T03:38:45.452Z,1019.97
2023-05-13T03:39:16.330Z,1019.97
2023-05-13T03:39:47.201Z,1019.98
2023-05-13T03:40:18.192Z,1019.99
2023-05-13T03:40:49.057Z,1019.99
2023-05-13T03:41:19.806Z,1020.01
2023-05-13T03:41:50.654Z,1020.00
2023-05-13T03:42:21.403Z,1020.01
2023-05-13T03:42:52.255Z,1020.02
2023-05-13T03:43:23.148Z,1020.04
2023-05-13T03:43:53.906Z,1020.03
2023-05-13T03:44:23.491Z,1020.02
2023-05-13T03:44:55.374Z,1020.02
2023-05-13T03:45:26.207Z,1020.02
2023-05-13T03:45:55.767Z,1020.02
2023-05-13T03:46:26.744Z,1020.01
2023-05-13T03:46:58.712Z,1020.01
2023-05-13T03:48:00.043Z,1019.99
2023-05-13T03:48:30.943Z,1019.99
2023-05-13T03:49:01.699Z,1019.99
2023-05-13T03:49:32.582Z,1019.99
2023-05-13T03:50:03.469Z,1019.98
2023-05-13T03:50:34.317Z,1019.99
2023-05-13T03:51:05.192Z,1019.99
2023-05-13T03:51:36.041Z,1019.99
2023-05-13T03:52:06.912Z,1020.01
2023-05-13T03:52:37.769Z,1019.99
2023-05-13T03:53:09.638Z,1019.99
2023-05-13T03:53:39.378Z,1020.00
2023-05-13T03:54:10.250Z,1020.02
2023-05-13T03:54:41.004Z,1020.01
2023-05-13T03:55:11.764Z,1020.03
2023-05-13T03:55:42.514Z,1020.00
2023-05-13T03:56:12.088Z,1020.03
2023-05-13T03:56:43.855Z,1020.05
2023-05-13T03:57:14.734Z,1020.02
2023-05-13T03:57:45.483Z,1020.05
2023-05-13T03:58:15.075Z,1020.05
2023-05-13T03:58:46.925Z,1020.04
2023-05-13T03:59:17.795Z,1020.04
2023-05-13T03:59:48.692Z,1020.05
2023-05-13T04:00:20.821Z,1020.05
2023-05-13T04:00:50.321Z,1020.05
2023-05-13T04:01:21.171Z,1020.05
2023-05-13T04:01:51.961Z,1020.05
2023-05-13T04:02:22.872Z,1020.07
2023-05-13T04:02:52.506Z,1020.04
2023-05-13T04:03:24.079Z,1020.03
2023-05-13T04:03:54.981Z,1020.03
2023-05-13T04:04:25.878Z,1020.02
2023-05-13T04:04:56.626Z,1020.01
2023-05-13T04:05:27.516Z,1020.01
2023-05-13T04:05:58.366Z,1020.02
2023-05-13T04:06:29.150Z,1020.02
2023-05-13T04:07:00.052Z,1020.03
2023-05-13T04:07:30.804Z,1020.04
2023-05-13T04:08:01.655Z,1020.04
2023-05-13T04:08:32.489Z,1020.05
2023-05-13T04:09:03.351Z,1020.06
2023-05-13T04:09:34.240Z,1020.06
2023-05-13T04:10:05.133Z,1020.07
2023-05-13T04:10:36.025Z,1020.06
2023-05-13T04:11:06.756Z,1020.07
2023-05-13T04:11:37.628Z,1020.08
2023-05-13T04:12:08.506Z,1020.08
2023-05-13T04:12:39.386Z,1020.09
2023-05-13T04:13:10.230Z,1020.10
2023-05-13T04:13:41.090Z,1020.09
2023-05-13T04:14:11.933Z,1020.09
2023-05-13T04:14:42.779Z,1020.09
2023-05-13T04:15:13.627Z,1020.09
2023-05-13T04:15:44.530Z,1020.10
2023-05-13T04:16:15.404Z,1020.10
2023-05-13T04:16:46.191Z,1020.11
2023-05-13T04:17:17.041Z,1020.12
2023-05-13T04:17:47.923Z,1020.12
2023-05-13T04:18:18.810Z,1020.11
2023-05-13T04:18:49.667Z,1020.12
2023-05-13T04:19:19.232Z,1020.12
2023-05-13T04:19:51.088Z,1020.12
2023-05-13T04:20:22.076Z,1020.13
2023-05-13T04:20:51.873Z,1020.13
2023-05-13T04:21:23.623Z,1020.14
2023-05-13T04:21:53.183Z,1020.15
2023-05-13T04:22:24.164Z,1020.14
2023-05-13T04:22:56.019Z,1020.15
2023-05-13T04:23:26.913Z,1020.16
2023-05-13T04:23:57.737Z,1020.16
2023-05-13T04:24:28.588Z,1020.17
2023-05-13T04:24:59.433Z,1020.15
2023-05-13T04:25:30.206Z,1020.17
2023-05-13T04:26:31.814Z,1020.18
2023-05-13T04:27:02.672Z,1020.17
2023-05-13T04:27:32.223Z,1020.18
2023-05-13T04:28:02.783Z,1020.18
2023-05-13T04:28:34.559Z,1020.17
2023-05-13T04:29:06.392Z,1020.18
2023-05-13T04:29:34.951Z,1020.19
2023-05-13T04:30:06.819Z,1020.20
2023-05-13T04:30:37.693Z,1020.20
2023-05-13T04:31:08.572Z,1020.21
2023-05-13T04:31:39.449Z,1020.21
2023-05-13T04:32:10.399Z,1020.24
2023-05-13T04:32:39.969Z,1020.24
2023-05-13T04:33:12.023Z,1020.24
2023-05-13T04:33:42.458Z,1020.26
2023-05-13T04:34:13.300Z,1020.26
2023-05-13T04:34:44.183Z,1020.26
2023-05-13T04:35:15.074Z,1020.25
2023-05-13T04:35:45.973Z,1020.27
2023-05-13T04:36:16.862Z,1020.28
2023-05-13T04:36:47.721Z,1020.29
2023-05-13T04:37:18.598Z,1020.30
2023-05-13T04:37:49.349Z,1020.30
2023-05-13T04:38:20.254Z,1020.31
2023-05-13T04:39:21.994Z,1020.30
2023-05-13T04:39:52.868Z,1020.32
2023-05-13T04:40:23.825Z,1020.31
2023-05-13T04:40:54.253Z,1020.33
2023-05-13T04:41:25.002Z,1020.32
2023-05-13T04:41:56.894Z,1020.33
2023-05-13T04:42:26.524Z,1020.33
2023-05-13T04:42:57.367Z,1020.34
2023-05-13T04:43:28.230Z,1020.35
2023-05-13T04:43:58.987Z,1020.34
2023-05-13T04:44:29.854Z,1020.34
2023-05-13T04:45:00.624Z,1020.35
2023-05-13T04:45:31.478Z,1020.35
2023-05-13T04:46:01.141Z,1020.37
2023-05-13T04:46:33.690Z,1020.36
2023-05-13T04:47:34.445Z,1020.36
2023-05-13T04:48:05.363Z,1020.36
2023-05-13T04:48:34.856Z,1020.36
2023-05-13T04:49:06.654Z,1020.37
2023-05-13T04:49:37.444Z,1020.36
2023-05-13T04:50:08.202Z,1020.37
2023-05-13T04:50:39.035Z,1020.38
2023-05-13T04:51:09.782Z,1020.37
2023-05-13T04:51:40.433Z,1020.38
2023-05-13T04:52:11.206Z,1020.38
2023-05-13T04:52:42.082Z,1020.39
2023-05-13T04:53:12.942Z,1020.37
2023-05-13T04:53:43.702Z,1020.38
2023-05-13T04:54:14.572Z,1020.38
2023-05-13T04:54:45.442Z,1020.39
2023-05-13T04:55:47.172Z,1020.40
2023-05-13T04:56:17.948Z,1020.39
2023-05-13T04:56:48.840Z,1020.39
2023-05-13T04:57:19.693Z,1020.41
2023-05-13T04:57:50.542Z,1020.41
2023-05-13T04:58:21.417Z,1020.43
2023-05-13T04:58:52.184Z,1020.46
2023-05-13T04:59:23.027Z,1020.43
2023-05-13T04:59:53.894Z,1020.43
2023-05-13T05:00:24.776Z,1020.43
2023-05-13T05:00:55.632Z,1020.44
2023-05-13T05:01:26.511Z,1020.44
2023-05-13T05:01:56.033Z,1020.45
2023-05-13T05:02:27.961Z,1020.45
2023-05-13T05:02:57.543Z,1020.46
2023-05-13T05:03:29.418Z,1020.44
2023-05-13T05:04:00.339Z,1020.45
2023-05-13T05:04:29.918Z,1020.45
2023-05-13T05:05:01.784Z,1020.46
2023-05-13T05:05:32.525Z,1020.46
2023-05-13T05:06:03.401Z,1020.46
2023-05-13T05:06:34.280Z,1020.45
2023-05-13T05:07:05.186Z,1020.46
2023-05-13T05:07:36.035Z,1020.46
2023-05-13T05:08:37.653Z,1020.46
2023-05-13T05:09:08.525Z,1020.46
2023-05-13T05:09:39.394Z,1020.47
2023-05-13T05:10:10.257Z,1020.49
2023-05-13T05:10:40.991Z,1020.47
2023-05-13T05:11:11.746Z,1020.49
2023-05-13T05:11:42.613Z,1020.49
2023-05-13T05:12:13.373Z,1020.49
2023-05-13T05:12:43.324Z,1020.50
2023-05-13T05:13:15.208Z,1020.50
2023-05-13T05:13:46.062Z,1020.50
2023-05-13T05:14:16.896Z,1020.52
2023-05-13T05:14:46.425Z,1020.52
2023-05-13T05:15:18.315Z,1020.52
2023-05-13T05:15:49.165Z,1020.55
2023-05-13T05:16:20.037Z,1020.54
2023-05-13T05:16:50.981Z,1020.54
2023-05-13T05:17:21.889Z,1020.53
2023-05-13T05:17:52.972Z,1020.54
2023-05-13T05:18:23.449Z,1020.55
2023-05-13T05:18:53.129Z,1020.55
2023-05-13T05:19:25.014Z,1020.55
2023-05-13T05:19:57.021Z,1020.53
2023-05-13T05:20:26.639Z,1020.55
2023-05-13T05:20:57.931Z,1020.55
2023-05-13T05:21:28.191Z,1020.56
2023-05-13T05:21:59.011Z,1020.55
2023-05-13T05:22:28.975Z,1020.57
2023-05-13T05:22:59.969Z,1020.57
2023-05-13T05:23:31.828Z,1020.58
2023-05-13T05:24:02.695Z,1020.59
2023-05-13T05:24:33.621Z,1020.58
2023-05-13T05:25:04.601Z,1020.59
2023-05-13T05:25:35.451Z,1020.59
2023-05-13T05:26:11.547Z,1020.60
2023-05-13T05:26:37.039Z,1020.61
2023-05-13T05:27:06.983Z,1020.61
2023-05-13T05:27:38.880Z,1020.61
2023-05-13T05:28:09.755Z,1020.62
2023-05-13T05:28:40.524Z,1020.62
2023-05-13T05:29:11.363Z,1020.63
2023-05-13T05:29:42.200Z,1020.63
2023-05-13T05:30:13.054Z,1020.64
2023-05-13T05:30:43.930Z,1020.64
2023-05-13T05:31:13.494Z,1020.65
2023-05-13T05:31:45.372Z,1020.65
2023-05-13T05:32:16.247Z,1020.66
2023-05-13T05:32:46.162Z,1020.66
2023-05-13T05:33:18.028Z,1020.67
2023-05-13T05:34:19.810Z,1020.68
2023-05-13T05:34:50.678Z,1020.67
2023-05-13T05:35:21.562Z,1020.68
2023-05-13T05:35:52.405Z,1020.68
2023-05-13T05:36:23.247Z,1020.68
2023-05-13T05:36:54.117Z,1020.67
2023-05-13T05:37:24.966Z,1020.68
2023-05-13T05:37:55.826Z,1020.68
2023-05-13T05:38:26.718Z,1020.68
2023-05-13T05:38:57.463Z,1020.68
2023-05-13T05:39:28.343Z,1020.68
2023-05-13T05:39:59.174Z,1020.68
2023-05-13T05:40:28.813Z,1020.69
2023-05-13T05:41:00.679Z,1020.69
2023-05-13T05:41:31.543Z,1020.70
2023-05-13T05:42:02.291Z,1020.68
2023-05-13T05:42:32.260Z,1020.72
2023-05-13T05:43:04.093Z,1020.73
2023-05-13T05:43:34.940Z,1020.71
2023-05-13T05:44:06.701Z,1020.71
2023-05-13T05:44:36.538Z,1020.70
2023-05-13T05:45:07.420Z,1020.72
2023-05-13T05:45:36.981Z,1020.72
2023-05-13T05:46:08.878Z,1020.72
2023-05-13T05:47:10.601Z,1020.72
2023-05-13T05:47:40.650Z,1020.74
2023-05-13T05:48:12.577Z,1020.74
2023-05-13T05:48:43.612Z,1020.72
2023-05-13T05:49:13.161Z,1020.74
2023-05-13T05:49:43.710Z,1020.74
2023-05-13T05:50:14.686Z,1020.75
2023-05-13T05:50:46.539Z,1020.75
2023-05-13T05:51:17.450Z,1020.75
2023-05-13T05:51:48.191Z,1020.75
2023-05-13T05:52:19.106Z,1020.76
2023-05-13T05:52:49.943Z,1020.75
2023-05-13T05:53:20.811Z,1020.76
2023-05-13T05:53:51.650Z,1020.75
2023-05-13T05:54:22.490Z,1020.75
2023-05-13T05:54:53.252Z,1020.75
2023-05-13T05:55:24.009Z,1020.75
2023-05-13T05:55:54.910Z,1020.76
2023-05-13T05:56:25.769Z,1020.76
2023-05-13T05:56:56.608Z,1020.76
2023-05-13T05:57:26.189Z,1020.78
2023-05-13T05:57:58.085Z,1020.76
2023-05-13T05:58:28.929Z,1020.78
2023-05-13T05:58:59.787Z,1020.77
2023-05-13T05:59:29.330Z,1020.78
2023-05-13T06:00:01.202Z,1020.79
2023-05-13T06:00:32.082Z,1020.79
2023-05-13T06:01:02.943Z,1020.81
2023-05-13T06:01:33.837Z,1020.83
2023-05-13T06:02:04.717Z,1020.79
2023-05-13T06:02:35.652Z,1020.82
2023-05-13T06:03:06.765Z,1020.81
2023-05-13T06:03:36.685Z,1020.83
2023-05-13T06:04:07.396Z,1020.85
2023-05-13T06:04:38.940Z,1020.83
2023-05-13T06:05:08.436Z,1020.83
2023-05-13T06:05:40.313Z,1020.83
2023-05-13T06:06:11.177Z,1020.82
2023-05-13T06:06:42.070Z,1020.83
2023-05-13T06:07:12.534Z,1020.85
2023-05-13T06:07:43.385Z,1020.85
2023-05-13T06:08:14.256Z,1020.84
2023-05-13T06:08:45.122Z,1020.83
2023-05-13T06:09:15.983Z,1020.84
2023-05-13T06:09:46.743Z,1020.84
2023-05-13T06:10:16.341Z,1020.84
2023-05-13T06:10:48.222Z,1020.84
2023-05-13T06:11:19.092Z,1020.85
2023-05-13T06:11:50.011Z,1020.87
2023-05-13T06:12:51.720Z,1020.85
2023-05-13T06:13:22.600Z,1020.83
2023-05-13T06:13:53.472Z,1020.84
2023-05-13T06:14:23.433Z,1020.85
2023-05-13T06:14:53.985Z,1020.84
2023-05-13T06:15:25.839Z,1020.85
2023-05-13T06:15:56.789Z,1020.85
2023-05-13T06:16:27.518Z,1020.85
2023-05-13T06:16:57.957Z,1020.85
2023-05-13T06:17:28.829Z,1020.85
2023-05-13T06:17:59.824Z,1020.85
2023-05-13T06:18:30.383Z,1020.87
2023-05-13T06:18:59.983Z,1020.86
2023-05-13T06:19:31.838Z,1020.85
2023-05-13T06:20:02.705Z,1020.84
2023-05-13T06:20:33.556Z,1020.87
2023-05-13T06:21:04.396Z,1020.88
2023-05-13T06:21:35.266Z,1020.86
2023-05-13T06:22:06.034Z,1020.87
2023-05-13T06:22:36.781Z,1020.87
2023-05-13T06:23:06.766Z,1020.88